sensor_id;sensor_type;location;lat;lon;timestamp;temperature;humidity
15386;DHT22;7791;47.246;9.648;2022-12-31T00:00:52;10.50;99.90
15386;DHT22;7791;47.246;9.648;2022-12-31T00:03:18;10.40;99.90
15386;DHT22;7791;47.246;9.648;2022-12-31T00:05:44;10.40;99.90
15386;DHT22;7791;47.246;9.648;2022-12-31T00:08:10;10.40;99.90
15386;DHT22;7791;47.246;9.648;2022-12-31T00:10:37;10.60;99.90
15386;DHT22;7791;47.246;9.648;2022-12-31T00:13:02;10.90;99.90
15386;DHT22;7791;47.246;9.648;2022-12-31T00:15:28;11.10;99.90
15386;DHT22;7791;47.246;9.648;2022-12-31T00:17:54;11.30;99.90
15386;DHT22;7791;47.246;9.648;2022-12-31T00:20:19;11.30;99.90
15386;DHT22;7791;47.246;9.648;2022-12-31T00:22:45;11.40;99.90
15386;DHT22;7791;47.246;9.648;2022-12-31T00:25:11;11.50;99.90
15386;DHT22;7791;47.246;9.648;2022-12-31T00:27:38;11.50;99.90
15386;DHT22;7791;47.246;9.648;2022-12-31T00:30:04;11.40;99.90
15386;DHT22;7791;47.246;9.648;2022-12-31T00:32:30;11.50;99.90
15386;DHT22;7791;47.246;9.648;2022-12-31T00:34:55;11.50;99.90
15386;DHT22;7791;47.246;9.648;2022-12-31T00:37:21;11.40;99.90
15386;DHT22;7791;47.246;9.648;2022-12-31T00:39:47;11.40;99.90
15386;DHT22;7791;47.246;9.648;2022-12-31T00:42:12;11.30;99.90
15386;DHT22;7791;47.246;9.648;2022-12-31T00:44:39;11.20;99.90
15386;DHT22;7791;47.246;9.648;2022-12-31T00:47:05;11.10;99.90
15386;DHT22;7791;47.246;9.648;2022-12-31T00:49:31;11.00;99.90
15386;DHT22;7791;47.246;9.648;2022-12-31T00:51:56;10.90;99.90
15386;DHT22;7791;47.246;9.648;2022-12-31T00:54:22;10.90;99.90
15386;DHT22;7791;47.246;9.648;2022-12-31T00:56:48;10.80;99.90
15386;DHT22;7791;47.246;9.648;2022-12-31T00:59:13;10.70;99.90
15386;DHT22;7791;47.246;9.648;2022-12-31T01:01:41;10.70;99.90
15386;DHT22;7791;47.246;9.648;2022-12-31T01:04:09;10.70;99.90
15386;DHT22;7791;47.246;9.648;2022-12-31T01:06:35;10.70;99.90
15386;DHT22;7791;47.246;9.648;2022-12-31T01:09:01;10.60;99.90
15386;DHT22;7791;47.246;9.648;2022-12-31T01:11:27;10.50;99.90
15386;DHT22;7791;47.246;9.648;2022-12-31T01:13:55;10.40;99.90
15386;DHT22;7791;47.246;9.648;2022-12-31T01:16:23;10.40;99.90
15386;DHT22;7791;47.246;9.648;2022-12-31T01:18:50;10.30;99.90
15386;DHT22;7791;47.246;9.648;2022-12-31T01:21:17;10.40;99.90
15386;DHT22;7791;47.246;9.648;2022-12-31T01:23:43;10.50;99.90
15386;DHT22;7791;47.246;9.648;2022-12-31T01:26:10;10.50;99.90
15386;DHT22;7791;47.246;9.648;2022-12-31T01:28:36;10.50;99.90
15386;DHT22;7791;47.246;9.648;2022-12-31T01:31:03;10.40;99.90
15386;DHT22;7791;47.246;9.648;2022-12-31T01:33:29;10.50;99.90
15386;DHT22;7791;47.246;9.648;2022-12-31T01:36:00;10.60;99.90
15386;DHT22;7791;47.246;9.648;2022-12-31T01:38:26;10.70;99.90
15386;DHT22;7791;47.246;9.648;2022-12-31T01:40:52;10.80;99.90
15386;DHT22;7791;47.246;9.648;2022-12-31T01:43:19;10.90;99.90
15386;DHT22;7791;47.246;9.648;2022-12-31T01:45:47;10.80;99.90
15386;DHT22;7791;47.246;9.648;2022-12-31T01:48:18;10.90;99.90
15386;DHT22;7791;47.246;9.648;2022-12-31T01:50:45;11.00;99.90
15386;DHT22;7791;47.246;9.648;2022-12-31T01:53:13;11.10;99.90
15386;DHT22;7791;47.246;9.648;2022-12-31T01:55:44;11.00;99.90
15386;DHT22;7791;47.246;9.648;2022-12-31T01:58:14;11.10;99.90
15386;DHT22;7791;47.246;9.648;2022-12-31T02:00:41;11.20;99.90
15386;DHT22;7791;47.246;9.648;2022-12-31T02:03:07;11.20;99.90
15386;DHT22;7791;47.246;9.648;2022-12-31T02:05:36;11.30;99.90
15386;DHT22;7791;47.246;9.648;2022-12-31T02:08:02;11.40;99.90
15386;DHT22;7791;47.246;9.648;2022-12-31T02:10:31;11.50;99.90
15386;DHT22;7791;47.246;9.648;2022-12-31T02:12:56;11.50;99.90
15386;DHT22;7791;47.246;9.648;2022-12-31T02:15:29;11.50;99.90
15386;DHT22;7791;47.246;9.648;2022-12-31T02:18:02;11.60;99.90
15386;DHT22;7791;47.246;9.648;2022-12-31T02:20:56;11.70;99.90
15386;DHT22;7791;47.246;9.648;2022-12-31T02:26:55;11.60;99.90
15386;DHT22;7791;47.246;9.648;2022-12-31T02:32:30;11.80;99.90
15386;DHT22;7791;47.246;9.648;2022-12-31T02:35:00;11.80;99.90
15386;DHT22;7791;47.246;9.648;2022-12-31T02:37:28;11.90;99.90
15386;DHT22;7791;47.246;9.648;2022-12-31T02:39:55;11.90;99.90
15386;DHT22;7791;47.246;9.648;2022-12-31T02:42:22;12.00;99.90
15386;DHT22;7791;47.246;9.648;2022-12-31T02:44:47;12.10;99.90
15386;DHT22;7791;47.246;9.648;2022-12-31T02:47:21;12.10;99.90
15386;DHT22;7791;47.246;9.648;2022-12-31T02:50:03;12.10;99.90
15386;DHT22;7791;47.246;9.648;2022-12-31T02:52:36;12.10;99.90
15386;DHT22;7791;47.246;9.648;2022-12-31T02:55:10;12.20;99.90
15386;DHT22;7791;47.246;9.648;2022-12-31T02:57:41;12.10;99.90
15386;DHT22;7791;47.246;9.648;2022-12-31T03:00:13;12.20;99.90
15386;DHT22;7791;47.246;9.648;2022-12-31T03:02:41;12.20;99.90
15386;DHT22;7791;47.246;9.648;2022-12-31T03:05:11;12.10;99.90
15386;DHT22;7791;47.246;9.648;2022-12-31T03:07:39;12.10;99.90
15386;DHT22;7791;47.246;9.648;2022-12-31T03:10:06;12.20;99.90
15386;DHT22;7791;47.246;9.648;2022-12-31T03:12:33;12.20;99.90
15386;DHT22;7791;47.246;9.648;2022-12-31T03:14:59;12.30;99.90
15386;DHT22;7791;47.246;9.648;2022-12-31T03:17:25;12.30;99.90
15386;DHT22;7791;47.246;9.648;2022-12-31T03:19:51;12.40;99.90
15386;DHT22;7791;47.246;9.648;2022-12-31T03:22:18;12.40;99.90
15386;DHT22;7791;47.246;9.648;2022-12-31T03:24:44;12.40;99.90
15386;DHT22;7791;47.246;9.648;2022-12-31T03:27:10;12.50;99.90
15386;DHT22;7791;47.246;9.648;2022-12-31T03:29:35;12.50;99.90
15386;DHT22;7791;47.246;9.648;2022-12-31T03:32:01;12.60;99.90
15386;DHT22;7791;47.246;9.648;2022-12-31T03:34:27;12.70;99.90
15386;DHT22;7791;47.246;9.648;2022-12-31T03:37:01;12.80;99.90
15386;DHT22;7791;47.246;9.648;2022-12-31T03:39:28;12.70;99.90
15386;DHT22;7791;47.246;9.648;2022-12-31T03:41:54;12.80;99.90
15386;DHT22;7791;47.246;9.648;2022-12-31T03:44:20;12.70;99.90
15386;DHT22;7791;47.246;9.648;2022-12-31T03:46:46;12.70;99.90
15386;DHT22;7791;47.246;9.648;2022-12-31T03:49:11;12.70;99.90
15386;DHT22;7791;47.246;9.648;2022-12-31T03:51:37;12.60;99.90
15386;DHT22;7791;47.246;9.648;2022-12-31T03:54:02;12.60;99.90
15386;DHT22;7791;47.246;9.648;2022-12-31T03:56:29;12.70;99.90
15386;DHT22;7791;47.246;9.648;2022-12-31T03:58:55;12.70;99.90
15386;DHT22;7791;47.246;9.648;2022-12-31T04:01:21;12.60;99.90
15386;DHT22;7791;47.246;9.648;2022-12-31T04:03:46;12.10;99.90
15386;DHT22;7791;47.246;9.648;2022-12-31T04:06:12;11.80;99.90
15386;DHT22;7791;47.246;9.648;2022-12-31T04:08:38;11.60;99.90
15386;DHT22;7791;47.246;9.648;2022-12-31T04:11:03;11.70;99.90
15386;DHT22;7791;47.246;9.648;2022-12-31T04:13:31;11.80;99.90
15386;DHT22;7791;47.246;9.648;2022-12-31T04:15:56;11.60;99.90
15386;DHT22;7791;47.246;9.648;2022-12-31T04:18:22;11.30;99.90
15386;DHT22;7791;47.246;9.648;2022-12-31T04:20:48;11.00;99.90
15386;DHT22;7791;47.246;9.648;2022-12-31T04:23:13;10.90;99.90
15386;DHT22;7791;47.246;9.648;2022-12-31T04:25:39;10.70;99.90
15386;DHT22;7791;47.246;9.648;2022-12-31T04:28:05;10.50;99.90
15386;DHT22;7791;47.246;9.648;2022-12-31T04:30:32;10.60;99.90
15386;DHT22;7791;47.246;9.648;2022-12-31T04:32:57;10.70;99.90
15386;DHT22;7791;47.246;9.648;2022-12-31T04:35:23;10.80;99.90
15386;DHT22;7791;47.246;9.648;2022-12-31T04:37:49;10.90;99.90
15386;DHT22;7791;47.246;9.648;2022-12-31T04:40:14;11.00;99.90
15386;DHT22;7791;47.246;9.648;2022-12-31T04:42:40;11.00;99.90
15386;DHT22;7791;47.246;9.648;2022-12-31T04:45:07;11.00;99.90
15386;DHT22;7791;47.246;9.648;2022-12-31T04:47:34;10.90;99.90
15386;DHT22;7791;47.246;9.648;2022-12-31T04:49:59;10.90;99.90
15386;DHT22;7791;47.246;9.648;2022-12-31T04:52:25;10.90;99.90
15386;DHT22;7791;47.246;9.648;2022-12-31T04:54:51;10.90;99.90
15386;DHT22;7791;47.246;9.648;2022-12-31T04:57:17;10.70;99.90
15386;DHT22;7791;47.246;9.648;2022-12-31T04:59:42;10.70;99.90
15386;DHT22;7791;47.246;9.648;2022-12-31T05:02:08;10.60;99.90
15386;DHT22;7791;47.246;9.648;2022-12-31T05:04:35;10.50;99.90
15386;DHT22;7791;47.246;9.648;2022-12-31T05:07:01;10.40;99.90
15386;DHT22;7791;47.246;9.648;2022-12-31T05:09:26;10.40;99.90
15386;DHT22;7791;47.246;9.648;2022-12-31T05:11:52;10.40;99.90
15386;DHT22;7791;47.246;9.648;2022-12-31T05:14:18;10.50;99.90
15386;DHT22;7791;47.246;9.648;2022-12-31T05:16:44;10.50;99.90
15386;DHT22;7791;47.246;9.648;2022-12-31T05:19:09;10.60;99.90
15386;DHT22;7791;47.246;9.648;2022-12-31T05:21:36;10.50;99.90
15386;DHT22;7791;47.246;9.648;2022-12-31T05:24:02;10.60;99.90
15386;DHT22;7791;47.246;9.648;2022-12-31T05:26:28;10.70;99.90
15386;DHT22;7791;47.246;9.648;2022-12-31T05:28:54;10.80;99.90
15386;DHT22;7791;47.246;9.648;2022-12-31T05:31:19;10.60;99.90
15386;DHT22;7791;47.246;9.648;2022-12-31T05:33:45;10.70;99.90
15386;DHT22;7791;47.246;9.648;2022-12-31T05:36:11;10.90;99.90
15386;DHT22;7791;47.246;9.648;2022-12-31T05:38:38;10.90;99.90
15386;DHT22;7791;47.246;9.648;2022-12-31T05:41:05;10.80;99.90
15386;DHT22;7791;47.246;9.648;2022-12-31T05:43:31;10.80;99.90
15386;DHT22;7791;47.246;9.648;2022-12-31T05:45:59;10.70;99.90
15386;DHT22;7791;47.246;9.648;2022-12-31T05:48:25;10.60;99.90
15386;DHT22;7791;47.246;9.648;2022-12-31T05:50:51;10.60;99.90
15386;DHT22;7791;47.246;9.648;2022-12-31T05:53:16;10.70;99.90
15386;DHT22;7791;47.246;9.648;2022-12-31T05:55:45;10.60;99.90
15386;DHT22;7791;47.246;9.648;2022-12-31T05:58:11;10.60;99.90
15386;DHT22;7791;47.246;9.648;2022-12-31T06:00:37;10.80;99.90
15386;DHT22;7791;47.246;9.648;2022-12-31T06:03:03;10.60;99.90
15386;DHT22;7791;47.246;9.648;2022-12-31T06:05:29;10.70;99.90
15386;DHT22;7791;47.246;9.648;2022-12-31T06:07:54;10.60;99.90
15386;DHT22;7791;47.246;9.648;2022-12-31T06:10:20;10.50;99.90
15386;DHT22;7791;47.246;9.648;2022-12-31T06:12:47;10.30;99.90
15386;DHT22;7791;47.246;9.648;2022-12-31T06:15:13;10.40;99.90
15386;DHT22;7791;47.246;9.648;2022-12-31T06:17:39;10.30;99.90
15386;DHT22;7791;47.246;9.648;2022-12-31T06:20:05;10.30;99.90
15386;DHT22;7791;47.246;9.648;2022-12-31T06:22:31;10.30;99.90
15386;DHT22;7791;47.246;9.648;2022-12-31T06:24:57;10.20;99.90
15386;DHT22;7791;47.246;9.648;2022-12-31T06:27:23;10.20;99.90
15386;DHT22;7791;47.246;9.648;2022-12-31T06:29:50;10.30;99.90
15386;DHT22;7791;47.246;9.648;2022-12-31T06:32:16;10.10;99.90
15386;DHT22;7791;47.246;9.648;2022-12-31T06:34:41;10.10;99.90
15386;DHT22;7791;47.246;9.648;2022-12-31T06:37:07;10.10;99.90
15386;DHT22;7791;47.246;9.648;2022-12-31T06:39:33;9.80;99.90
15386;DHT22;7791;47.246;9.648;2022-12-31T06:41:59;9.80;99.90
15386;DHT22;7791;47.246;9.648;2022-12-31T06:44:25;9.80;99.90
15386;DHT22;7791;47.246;9.648;2022-12-31T06:46:52;9.60;99.90
15386;DHT22;7791;47.246;9.648;2022-12-31T06:49:17;9.80;99.90
15386;DHT22;7791;47.246;9.648;2022-12-31T06:51:43;10.00;99.90
15386;DHT22;7791;47.246;9.648;2022-12-31T06:54:09;10.10;99.90
15386;DHT22;7791;47.246;9.648;2022-12-31T06:56:35;10.20;99.90
15386;DHT22;7791;47.246;9.648;2022-12-31T06:59:01;10.10;99.90
15386;DHT22;7791;47.246;9.648;2022-12-31T07:01:44;10.00;99.90
15386;DHT22;7791;47.246;9.648;2022-12-31T07:07:25;9.80;99.90
15386;DHT22;7791;47.246;9.648;2022-12-31T07:10:00;9.90;99.90
15386;DHT22;7791;47.246;9.648;2022-12-31T07:12:39;10.00;99.90
15386;DHT22;7791;47.246;9.648;2022-12-31T07:15:11;10.00;99.90
15386;DHT22;7791;47.246;9.648;2022-12-31T07:17:46;9.80;99.90
15386;DHT22;7791;47.246;9.648;2022-12-31T07:20:16;10.00;99.90
15386;DHT22;7791;47.246;9.648;2022-12-31T07:22:45;10.00;99.90
15386;DHT22;7791;47.246;9.648;2022-12-31T07:25:12;10.00;99.90
15386;DHT22;7791;47.246;9.648;2022-12-31T07:27:49;10.10;99.90
15386;DHT22;7791;47.246;9.648;2022-12-31T07:30:19;10.00;99.90
15386;DHT22;7791;47.246;9.648;2022-12-31T07:33:04;10.10;99.90
15386;DHT22;7791;47.246;9.648;2022-12-31T07:35:40;10.20;99.90
15386;DHT22;7791;47.246;9.648;2022-12-31T07:38:19;10.30;99.90
15386;DHT22;7791;47.246;9.648;2022-12-31T07:40:55;10.30;99.90
15386;DHT22;7791;47.246;9.648;2022-12-31T07:43:29;10.30;99.90
15386;DHT22;7791;47.246;9.648;2022-12-31T07:46:01;10.30;99.90
15386;DHT22;7791;47.246;9.648;2022-12-31T07:48:31;10.30;99.90
15386;DHT22;7791;47.246;9.648;2022-12-31T07:50:58;10.20;99.90
15386;DHT22;7791;47.246;9.648;2022-12-31T07:53:26;10.30;99.90
15386;DHT22;7791;47.246;9.648;2022-12-31T07:55:54;10.30;99.90
15386;DHT22;7791;47.246;9.648;2022-12-31T07:58:23;10.40;99.90
15386;DHT22;7791;47.246;9.648;2022-12-31T08:00:51;10.30;99.90
15386;DHT22;7791;47.246;9.648;2022-12-31T08:06:11;10.20;99.90
15386;DHT22;7791;47.246;9.648;2022-12-31T08:08:48;10.10;99.90
15386;DHT22;7791;47.246;9.648;2022-12-31T08:11:18;10.10;99.90
15386;DHT22;7791;47.246;9.648;2022-12-31T08:13:48;10.30;99.90
15386;DHT22;7791;47.246;9.648;2022-12-31T08:16:14;10.20;99.90
15386;DHT22;7791;47.246;9.648;2022-12-31T08:18:40;10.30;99.90
15386;DHT22;7791;47.246;9.648;2022-12-31T08:21:16;10.40;99.90
15386;DHT22;7791;47.246;9.648;2022-12-31T08:23:50;10.60;99.90
15386;DHT22;7791;47.246;9.648;2022-12-31T08:26:26;10.70;99.90
15386;DHT22;7791;47.246;9.648;2022-12-31T08:29:03;10.80;99.90
15386;DHT22;7791;47.246;9.648;2022-12-31T08:31:39;10.90;99.90
15386;DHT22;7791;47.246;9.648;2022-12-31T08:34:13;11.10;99.90
15386;DHT22;7791;47.246;9.648;2022-12-31T08:36:46;11.00;99.90
15386;DHT22;7791;47.246;9.648;2022-12-31T08:39:26;11.10;99.90
15386;DHT22;7791;47.246;9.648;2022-12-31T08:41:56;10.90;99.90
15386;DHT22;7791;47.246;9.648;2022-12-31T08:44:28;11.00;99.90
15386;DHT22;7791;47.246;9.648;2022-12-31T08:47:01;11.30;99.90
15386;DHT22;7791;47.246;9.648;2022-12-31T08:49:33;12.10;99.90
15386;DHT22;7791;47.246;9.648;2022-12-31T08:52:01;13.10;99.90
15386;DHT22;7791;47.246;9.648;2022-12-31T08:54:30;14.10;99.90
15386;DHT22;7791;47.246;9.648;2022-12-31T09:00:05;15.80;99.90
15386;DHT22;7791;47.246;9.648;2022-12-31T09:02:44;16.60;99.90
15386;DHT22;7791;47.246;9.648;2022-12-31T09:05:18;17.10;99.90
15386;DHT22;7791;47.246;9.648;2022-12-31T09:07:52;17.10;99.90
15386;DHT22;7791;47.246;9.648;2022-12-31T09:10:25;17.30;99.90
15386;DHT22;7791;47.246;9.648;2022-12-31T09:12:58;17.90;99.90
15386;DHT22;7791;47.246;9.648;2022-12-31T09:15:29;18.50;99.90
15386;DHT22;7791;47.246;9.648;2022-12-31T09:17:57;18.20;99.90
15386;DHT22;7791;47.246;9.648;2022-12-31T09:20:26;17.50;99.90
15386;DHT22;7791;47.246;9.648;2022-12-31T09:22:53;18.10;99.90
15386;DHT22;7791;47.246;9.648;2022-12-31T09:25:22;18.90;99.90
15386;DHT22;7791;47.246;9.648;2022-12-31T09:28:01;19.70;99.90
15386;DHT22;7791;47.246;9.648;2022-12-31T09:30:33;20.60;99.90
15386;DHT22;7791;47.246;9.648;2022-12-31T09:33:08;21.00;99.90
15386;DHT22;7791;47.246;9.648;2022-12-31T09:35:38;21.40;99.90
15386;DHT22;7791;47.246;9.648;2022-12-31T09:38:13;21.50;99.90
15386;DHT22;7791;47.246;9.648;2022-12-31T09:41:10;21.20;99.90
15386;DHT22;7791;47.246;9.648;2022-12-31T09:44:02;21.00;99.90
15386;DHT22;7791;47.246;9.648;2022-12-31T09:50:17;21.00;99.90
15386;DHT22;7791;47.246;9.648;2022-12-31T09:52:59;21.20;99.90
15386;DHT22;7791;47.246;9.648;2022-12-31T09:55:34;21.60;99.90
15386;DHT22;7791;47.246;9.648;2022-12-31T09:58:09;21.30;99.90
15386;DHT22;7791;47.246;9.648;2022-12-31T10:00:43;21.30;99.90
15386;DHT22;7791;47.246;9.648;2022-12-31T10:03:29;20.90;99.90
15386;DHT22;7791;47.246;9.648;2022-12-31T10:06:15;21.70;99.90
15386;DHT22;7791;47.246;9.648;2022-12-31T10:09:01;22.30;99.90
15386;DHT22;7791;47.246;9.648;2022-12-31T10:11:35;22.60;99.90
15386;DHT22;7791;47.246;9.648;2022-12-31T10:14:18;22.50;99.90
15386;DHT22;7791;47.246;9.648;2022-12-31T10:17:01;22.10;99.90
15386;DHT22;7791;47.246;9.648;2022-12-31T10:19:54;22.00;99.90
15386;DHT22;7791;47.246;9.648;2022-12-31T10:22:43;22.50;99.90
15386;DHT22;7791;47.246;9.648;2022-12-31T10:28:29;22.50;99.90
15386;DHT22;7791;47.246;9.648;2022-12-31T10:31:09;22.90;99.90
15386;DHT22;7791;47.246;9.648;2022-12-31T10:33:42;23.10;99.10
15386;DHT22;7791;47.246;9.648;2022-12-31T10:36:17;22.90;99.90
15386;DHT22;7791;47.246;9.648;2022-12-31T10:38:53;22.90;99.40
15386;DHT22;7791;47.246;9.648;2022-12-31T10:47:43;21.20;99.90
15386;DHT22;7791;47.246;9.648;2022-12-31T10:56:48;20.60;99.90
15386;DHT22;7791;47.246;9.648;2022-12-31T11:05:48;21.30;99.90
15386;DHT22;7791;47.246;9.648;2022-12-31T11:08:43;21.30;99.90
15386;DHT22;7791;47.246;9.648;2022-12-31T11:11:23;21.30;99.90
15386;DHT22;7791;47.246;9.648;2022-12-31T11:17:34;20.90;99.90
15386;DHT22;7791;47.246;9.648;2022-12-31T11:20:21;20.70;99.90
15386;DHT22;7791;47.246;9.648;2022-12-31T11:22:59;20.20;99.90
15386;DHT22;7791;47.246;9.648;2022-12-31T11:25:32;19.70;99.90
15386;DHT22;7791;47.246;9.648;2022-12-31T11:28:26;19.90;99.90
15386;DHT22;7791;47.246;9.648;2022-12-31T11:34:22;19.40;99.90
15386;DHT22;7791;47.246;9.648;2022-12-31T11:37:06;19.80;99.90
15386;DHT22;7791;47.246;9.648;2022-12-31T11:39:48;20.10;99.90
15386;DHT22;7791;47.246;9.648;2022-12-31T11:42:22;19.90;99.90
15386;DHT22;7791;47.246;9.648;2022-12-31T11:48:01;20.60;99.90
15386;DHT22;7791;47.246;9.648;2022-12-31T11:50:37;21.00;99.90
15386;DHT22;7791;47.246;9.648;2022-12-31T11:53:19;21.30;99.90
15386;DHT22;7791;47.246;9.648;2022-12-31T11:55:55;21.50;99.90
15386;DHT22;7791;47.246;9.648;2022-12-31T11:58:45;21.50;99.90
15386;DHT22;7791;47.246;9.648;2022-12-31T12:01:15;21.70;99.90
15386;DHT22;7791;47.246;9.648;2022-12-31T12:03:42;21.60;99.90
15386;DHT22;7791;47.246;9.648;2022-12-31T12:06:11;21.50;99.90
15386;DHT22;7791;47.246;9.648;2022-12-31T12:08:37;21.50;99.90
15386;DHT22;7791;47.246;9.648;2022-12-31T12:11:06;21.40;99.90
15386;DHT22;7791;47.246;9.648;2022-12-31T12:13:33;21.40;99.90
15386;DHT22;7791;47.246;9.648;2022-12-31T12:16:00;21.30;99.90
15386;DHT22;7791;47.246;9.648;2022-12-31T12:18:31;21.40;99.90
15386;DHT22;7791;47.246;9.648;2022-12-31T12:21:04;21.20;99.90
15386;DHT22;7791;47.246;9.648;2022-12-31T12:23:31;20.70;99.90
15386;DHT22;7791;47.246;9.648;2022-12-31T12:25:56;20.30;99.90
15386;DHT22;7791;47.246;9.648;2022-12-31T12:34:22;19.50;99.90
15386;DHT22;7791;47.246;9.648;2022-12-31T12:36:48;19.30;99.90
15386;DHT22;7791;47.246;9.648;2022-12-31T12:39:19;19.10;99.90
15386;DHT22;7791;47.246;9.648;2022-12-31T12:41:44;18.90;99.90
15386;DHT22;7791;47.246;9.648;2022-12-31T12:44:15;18.80;99.90
15386;DHT22;7791;47.246;9.648;2022-12-31T12:46:44;18.60;99.90
15386;DHT22;7791;47.246;9.648;2022-12-31T12:49:19;18.40;99.90
15386;DHT22;7791;47.246;9.648;2022-12-31T12:52:02;18.30;99.90
15386;DHT22;7791;47.246;9.648;2022-12-31T12:54:42;18.30;99.90
15386;DHT22;7791;47.246;9.648;2022-12-31T12:57:18;18.20;99.90
15386;DHT22;7791;47.246;9.648;2022-12-31T13:00:03;18.20;99.90
15386;DHT22;7791;47.246;9.648;2022-12-31T13:02:54;18.00;99.90
15386;DHT22;7791;47.246;9.648;2022-12-31T13:05:31;17.90;99.90
15386;DHT22;7791;47.246;9.648;2022-12-31T13:08:09;17.80;99.90
15386;DHT22;7791;47.246;9.648;2022-12-31T13:11:00;17.70;99.90
15386;DHT22;7791;47.246;9.648;2022-12-31T13:13:33;17.70;99.90
15386;DHT22;7791;47.246;9.648;2022-12-31T13:19:10;17.50;99.90
15386;DHT22;7791;47.246;9.648;2022-12-31T13:21:45;17.40;99.90
15386;DHT22;7791;47.246;9.648;2022-12-31T13:24:25;17.50;99.90
15386;DHT22;7791;47.246;9.648;2022-12-31T13:26:58;17.40;99.90
15386;DHT22;7791;47.246;9.648;2022-12-31T13:29:28;17.30;99.90
15386;DHT22;7791;47.246;9.648;2022-12-31T13:31:56;17.30;99.90
15386;DHT22;7791;47.246;9.648;2022-12-31T13:34:28;17.30;99.90
15386;DHT22;7791;47.246;9.648;2022-12-31T13:36:57;17.00;99.90
15386;DHT22;7791;47.246;9.648;2022-12-31T13:39:28;17.00;99.90
15386;DHT22;7791;47.246;9.648;2022-12-31T13:41:57;16.80;99.90
15386;DHT22;7791;47.246;9.648;2022-12-31T13:50:20;16.20;99.90
15386;DHT22;7791;47.246;9.648;2022-12-31T13:52:52;16.10;99.90
15386;DHT22;7791;47.246;9.648;2022-12-31T13:55:22;15.80;99.90
15386;DHT22;7791;47.246;9.648;2022-12-31T13:57:51;15.90;99.90
15386;DHT22;7791;47.246;9.648;2022-12-31T14:00:22;15.90;99.90
15386;DHT22;7791;47.246;9.648;2022-12-31T14:03:05;15.90;99.90
15386;DHT22;7791;47.246;9.648;2022-12-31T14:05:37;15.90;99.90
15386;DHT22;7791;47.246;9.648;2022-12-31T14:08:05;15.70;99.90
15386;DHT22;7791;47.246;9.648;2022-12-31T14:10:40;15.60;99.90
15386;DHT22;7791;47.246;9.648;2022-12-31T14:16:09;15.50;99.90
15386;DHT22;7791;47.246;9.648;2022-12-31T14:18:43;15.40;99.90
15386;DHT22;7791;47.246;9.648;2022-12-31T14:21:17;15.30;99.90
15386;DHT22;7791;47.246;9.648;2022-12-31T14:23:49;15.20;99.90
15386;DHT22;7791;47.246;9.648;2022-12-31T14:26:21;15.10;99.90
15386;DHT22;7791;47.246;9.648;2022-12-31T14:28:58;14.90;99.90
15386;DHT22;7791;47.246;9.648;2022-12-31T14:31:42;14.80;99.90
15386;DHT22;7791;47.246;9.648;2022-12-31T14:34:14;14.60;99.90
15386;DHT22;7791;47.246;9.648;2022-12-31T14:36:51;14.30;99.90
15386;DHT22;7791;47.246;9.648;2022-12-31T14:39:29;14.00;99.90
15386;DHT22;7791;47.246;9.648;2022-12-31T14:42:11;13.80;99.90
15386;DHT22;7791;47.246;9.648;2022-12-31T14:44:52;13.80;99.90
15386;DHT22;7791;47.246;9.648;2022-12-31T14:47:29;13.70;99.90
15386;DHT22;7791;47.246;9.648;2022-12-31T14:50:02;13.70;99.90
15386;DHT22;7791;47.246;9.648;2022-12-31T14:52:31;13.50;99.90
15386;DHT22;7791;47.246;9.648;2022-12-31T14:55:00;13.40;99.90
15386;DHT22;7791;47.246;9.648;2022-12-31T14:57:33;13.20;99.90
15386;DHT22;7791;47.246;9.648;2022-12-31T15:00:02;13.10;99.90
15386;DHT22;7791;47.246;9.648;2022-12-31T15:02:48;13.00;99.90
15386;DHT22;7791;47.246;9.648;2022-12-31T15:05:16;12.80;99.90
15386;DHT22;7791;47.246;9.648;2022-12-31T15:07:56;12.70;99.90
15386;DHT22;7791;47.246;9.648;2022-12-31T15:10:37;12.50;99.90
15386;DHT22;7791;47.246;9.648;2022-12-31T15:13:13;12.30;99.90
15386;DHT22;7791;47.246;9.648;2022-12-31T15:15:59;12.10;99.90
15386;DHT22;7791;47.246;9.648;2022-12-31T15:18:34;12.00;99.90
15386;DHT22;7791;47.246;9.648;2022-12-31T15:21:28;11.90;99.90
15386;DHT22;7791;47.246;9.648;2022-12-31T15:23:58;11.70;99.90
15386;DHT22;7791;47.246;9.648;2022-12-31T15:26:26;11.50;99.90
15386;DHT22;7791;47.246;9.648;2022-12-31T15:28:58;11.50;99.90
15386;DHT22;7791;47.246;9.648;2022-12-31T15:31:44;11.40;99.90
15386;DHT22;7791;47.246;9.648;2022-12-31T15:34:23;11.30;99.90
15386;DHT22;7791;47.246;9.648;2022-12-31T15:36:53;11.10;99.90
15386;DHT22;7791;47.246;9.648;2022-12-31T15:39:37;11.00;99.90
15386;DHT22;7791;47.246;9.648;2022-12-31T15:44:48;10.60;99.90
15386;DHT22;7791;47.246;9.648;2022-12-31T15:47:27;10.40;99.90
15386;DHT22;7791;47.246;9.648;2022-12-31T15:49:53;10.40;99.90
15386;DHT22;7791;47.246;9.648;2022-12-31T15:52:24;10.20;99.90
15386;DHT22;7791;47.246;9.648;2022-12-31T15:54:54;10.10;99.90
15386;DHT22;7791;47.246;9.648;2022-12-31T15:57:25;10.00;99.90
15386;DHT22;7791;47.246;9.648;2022-12-31T15:59:57;9.90;99.90
15386;DHT22;7791;47.246;9.648;2022-12-31T16:02:24;9.90;99.90
15386;DHT22;7791;47.246;9.648;2022-12-31T16:04:51;9.80;99.90
15386;DHT22;7791;47.246;9.648;2022-12-31T16:07:18;9.80;99.90
15386;DHT22;7791;47.246;9.648;2022-12-31T16:09:47;9.70;99.90
15386;DHT22;7791;47.246;9.648;2022-12-31T16:12:19;9.60;99.90
15386;DHT22;7791;47.246;9.648;2022-12-31T16:14:50;9.50;99.90
15386;DHT22;7791;47.246;9.648;2022-12-31T16:17:25;9.40;99.90
15386;DHT22;7791;47.246;9.648;2022-12-31T16:19:51;9.30;99.90
15386;DHT22;7791;47.246;9.648;2022-12-31T16:22:23;9.30;99.90
15386;DHT22;7791;47.246;9.648;2022-12-31T16:24:52;9.20;99.90
15386;DHT22;7791;47.246;9.648;2022-12-31T16:27:21;9.20;99.90
15386;DHT22;7791;47.246;9.648;2022-12-31T16:29:51;9.20;99.90
15386;DHT22;7791;47.246;9.648;2022-12-31T16:32:20;9.10;99.90
15386;DHT22;7791;47.246;9.648;2022-12-31T16:34:47;8.90;99.90
15386;DHT22;7791;47.246;9.648;2022-12-31T16:37:15;8.90;99.90
15386;DHT22;7791;47.246;9.648;2022-12-31T16:42:37;8.80;99.90
15386;DHT22;7791;47.246;9.648;2022-12-31T16:45:17;8.70;99.90
15386;DHT22;7791;47.246;9.648;2022-12-31T16:47:43;8.70;99.90
15386;DHT22;7791;47.246;9.648;2022-12-31T16:50:14;8.70;99.90
15386;DHT22;7791;47.246;9.648;2022-12-31T16:52:43;8.70;99.90
15386;DHT22;7791;47.246;9.648;2022-12-31T16:55:14;8.80;99.90
15386;DHT22;7791;47.246;9.648;2022-12-31T16:57:45;8.90;99.90
15386;DHT22;7791;47.246;9.648;2022-12-31T17:00:17;8.90;99.90
15386;DHT22;7791;47.246;9.648;2022-12-31T17:02:47;8.90;99.90
15386;DHT22;7791;47.246;9.648;2022-12-31T17:05:19;8.60;99.90
15386;DHT22;7791;47.246;9.648;2022-12-31T17:07:48;8.50;99.90
15386;DHT22;7791;47.246;9.648;2022-12-31T17:10:20;8.50;99.90
15386;DHT22;7791;47.246;9.648;2022-12-31T17:12:54;8.50;99.90
15386;DHT22;7791;47.246;9.648;2022-12-31T17:15:24;8.60;99.90
15386;DHT22;7791;47.246;9.648;2022-12-31T17:17:54;8.60;99.90
15386;DHT22;7791;47.246;9.648;2022-12-31T17:20:24;8.70;99.90
15386;DHT22;7791;47.246;9.648;2022-12-31T17:22:53;8.70;99.90
15386;DHT22;7791;47.246;9.648;2022-12-31T17:25:23;8.60;99.90